Gstaad, Switzerland
Current Conditions -  °F | °C
As of 6:50 PM on Wednesday 28 Jan 2015 (Local Time) from LSMS Reporting Station
Broken Clouds Broken Clouds  
Wind Chill: 34°   Ceiling: 20000
Heat Index: 34°   Visibility: 6mi
Dew Point: 23°   Wind: 2mph
Humidity: 65%   Direction: NA
Pressure: 30"   Gusts: NA
Location:  46.47°N, 7.29°E
Report Text: LSMS 281750Z VRB02KT 9999 SCT100 BKN200 01/M05 Q1016
Loading
Personal Weather Stations






























Interactive Weather Map New forecast layout! Learn more

10-Day Weather Forecast

Advertisements
Track Severe Weather on mobile